Time;durP1;ratioP1;P1;durP2;ratioP2;P2;SDS_P1;SDS_P2;PMS_P1;PMS_P2;Temp;Humidity;BMP_temperature;BMP_pressure;BME280_temperature;BME280_humidity;BME280_pressure;Samples;Min_cycle;Max_cycle;Signal;HPM_P1;HPM_P2
2022/11/22 00:01:02;;;;;;;;;4.67;1.67;;;;;7.71;67.07;99044.56;5102513;27;45573;-68
2022/11/22 00:03:27;;;;;;;;;3.67;1.00;;;;;8.20;67.09;99130.00;5100364;27;45295;-67
2022/11/22 00:05:53;;;;;;;;;3.00;1.00;;;;;7.08;67.14;98937.72;5082341;27;45482;-68
2022/11/22 00:08:18;;;;;;;;;3.00;2.00;;;;;8.14;67.42;99120.09;5099826;27;45334;-68
2022/11/22 00:10:44;;;;;;;;;2.33;2.33;;;;;7.99;67.81;99106.72;5100568;27;45316;-69
2022/11/22 00:13:09;;;;;;;;;4.00;2.00;;;;;8.07;67.61;99119.94;5100279;27;46583;-68
2022/11/22 00:15:35;;;;;;;;;2.33;1.33;;;;;8.07;67.77;99124.41;5100715;27;45243;-70
2022/11/22 00:18:00;;;;;;;;;2.67;2.00;;;;;8.06;67.83;99134.19;5104256;27;45376;-68
2022/11/22 00:20:26;;;;;;;;;3.00;1.00;;;;;8.00;67.95;99118.13;5102937;27;45643;-68
2022/11/22 00:22:52;;;;;;;;;3.00;3.00;;;;;7.37;67.84;99023.59;5108143;27;45407;-68
2022/11/22 00:25:17;;;;;;;;;3.00;2.00;;;;;7.94;67.98;99124.91;5082103;27;45371;-70
2022/11/22 00:27:43;;;;;;;;;1.00;1.00;;;;;7.89;67.97;99112.19;5099326;27;45551;-69
2022/11/22 00:30:09;;;;;;;;;5.00;1.67;;;;;7.87;68.43;99113.34;5111323;27;45298;-68
2022/11/22 00:32:35;;;;;;;;;3.00;2.00;;;;;7.33;68.03;99025.75;5098635;27;47551;-69
2022/11/22 00:35:00;;;;;;;;;1.33;0.67;;;;;7.72;68.42;99091.19;5100390;27;45847;-69
2022/11/22 00:37:26;;;;;;;;;1.00;1.00;;;;;7.79;68.50;99100.13;5115973;27;45528;-70
2022/11/22 00:39:51;;;;;;;;;1.33;1.00;;;;;7.81;68.55;99109.56;5099901;27;45185;-68
2022/11/22 00:42:16;;;;;;;;;0.67;0.67;;;;;7.84;68.43;99103.09;5099579;27;46261;-69
2022/11/22 00:44:42;;;;;;;;;5.33;3.67;;;;;7.83;68.70;99133.19;5095908;27;46232;-68
2022/11/22 00:47:07;;;;;;;;;3.33;2.00;;;;;7.79;68.70;99110.69;5114551;27;45504;-69
2022/11/22 00:49:32;;;;;;;;;1.67;1.00;;;;;7.79;68.60;99115.97;5102196;27;45395;-68
2022/11/22 00:51:58;;;;;;;;;3.00;2.33;;;;;7.66;68.34;99094.50;5099812;27;46377;-68
2022/11/22 00:54:23;;;;;;;;;2.00;2.00;;;;;7.50;68.32;99061.78;5099975;27;45216;-67
2022/11/22 00:56:48;;;;;;;;;3.67;1.33;;;;;7.79;68.96;99127.38;5088778;27;45387;-69
2022/11/22 00:59:13;;;;;;;;;3.33;3.00;;;;;6.82;68.22;98963.47;5120775;27;45212;-67
2022/11/22 01:01:39;;;;;;;;;1.67;1.67;;;;;7.59;68.73;99102.25;5120236;27;46401;-69
2022/11/22 01:04:04;;;;;;;;;3.00;1.00;;;;;7.65;68.56;99119.31;5120451;27;45458;-67
2022/11/22 01:06:30;;;;;;;;;2.00;2.00;;;;;7.49;68.82;99099.78;5120751;27;45588;-67
2022/11/22 01:08:55;;;;;;;;;4.00;3.00;;;;;7.71;68.25;99131.88;5120689;27;45562;-66
2022/11/22 01:11:20;;;;;;;;;2.33;2.00;;;;;7.57;68.72;99112.19;5119863;27;45479;-69
2022/11/22 01:13:46;;;;;;;;;3.00;3.00;;;;;7.66;68.56;99099.81;5102620;27;45405;-67
2022/11/22 01:16:12;;;;;;;;;3.00;3.00;;;;;7.66;68.66;99118.31;5081154;27;45384;-69
2022/11/22 01:18:38;;;;;;;;;2.00;0.00;;;;;6.95;68.72;99009.53;5091730;27;45589;-68
2022/11/22 01:21:04;;;;;;;;;3.33;1.00;;;;;7.58;69.07;99101.44;5119771;27;46756;-69
2022/11/22 01:23:30;;;;;;;;;2.67;2.00;;;;;7.58;68.34;99098.78;5120262;27;45908;-68
2022/11/22 01:25:56;;;;;;;;;3.67;3.00;;;;;7.45;68.33;99077.31;5120106;27;45476;-68
2022/11/22 01:28:21;;;;;;;;;2.00;1.00;;;;;6.76;68.68;98978.13;5120268;27;45381;-68
2022/11/22 01:30:50;;;;;;;;;2.00;2.00;;;;;7.34;68.82;99072.34;5119484;27;45839;-68
2022/11/22 01:33:15;;;;;;;;;2.33;1.00;;;;;7.75;68.81;99125.25;5091840;27;45677;-68
2022/11/22 01:35:41;;;;;;;;;1.33;1.33;;;;;7.81;68.55;99114.03;5099002;27;45691;-68
2022/11/22 01:38:06;;;;;;;;;4.00;1.33;;;;;7.47;68.38;99054.19;5099471;27;45469;-67
2022/11/22 01:40:32;;;;;;;;;2.67;1.33;;;;;7.83;68.49;99112.03;5098497;27;45575;-67
2022/11/22 01:42:59;;;;;;;;;1.33;1.00;;;;;7.84;67.71;99109.22;5099017;27;49233;-69
2022/11/22 01:45:33;;;;;;;;;3.00;2.67;;;;;7.86;67.96;99104.59;5098073;27;45386;-66
2022/11/22 01:48:15;;;;;;;;;0.00;0.00;;;;;7.82;67.89;99100.63;5100747;27;45530;-66
2022/11/22 01:50:45;;;;;;;;;2.00;1.00;;;;;7.86;67.73;99101.13;5119538;27;46803;-69
2022/11/22 01:53:16;;;;;;;;;4.67;1.00;;;;;6.35;67.81;98861.91;5119272;27;45316;-68
2022/11/22 01:55:42;;;;;;;;;4.00;2.00;;;;;7.43;67.77;99021.16;5099830;27;45367;-67
2022/11/22 01:58:10;;;;;;;;;4.00;2.00;;;;;7.79;67.96;99085.06;5095912;27;45643;-68
2022/11/22 02:00:37;;;;;;;;;2.00;1.00;;;;;7.77;67.78;99087.06;5098531;27;46583;-68
2022/11/22 02:03:04;;;;;;;;;1.33;1.33;;;;;7.96;68.14;99109.69;5098764;27;45228;-67
2022/11/22 02:05:33;;;;;;;;;2.00;1.00;;;;;8.01;67.98;99106.53;5098677;27;45520;-68
2022/11/22 02:08:06;;;;;;;;;1.67;0.67;;;;;7.95;68.05;99086.88;5099010;27;45306;-68
2022/11/22 02:10:36;;;;;;;;;2.00;2.00;;;;;7.90;68.07;99081.25;5098271;27;45602;-69
2022/11/22 02:13:03;;;;;;;;;4.00;1.00;;;;;7.88;68.02;99080.59;5098445;27;45417;-67
2022/11/22 02:15:29;;;;;;;;;5.00;1.00;;;;;7.40;68.13;99002.94;5098681;27;45296;-69
2022/11/22 02:17:57;;;;;;;;;1.00;1.00;;;;;7.57;68.25;99007.22;5080383;27;45451;-69
2022/11/22 02:20:23;;;;;;;;;0.00;0.00;;;;;8.06;67.72;99080.41;5098116;27;45849;-68
2022/11/22 02:22:58;;;;;;;;;2.67;1.67;;;;;8.03;68.21;99078.94;5105349;27;45522;-67
2022/11/22 02:25:35;;;;;;;;;1.33;1.33;;;;;7.89;68.23;99058.44;5116852;27;45359;-68
2022/11/22 02:28:01;;;;;;;;;2.67;1.33;;;;;7.90;68.27;99060.09;5096877;27;45465;-68
2022/11/22 02:30:26;;;;;;;;;2.00;1.00;;;;;7.77;68.31;99043.91;5099520;27;45452;-68
2022/11/22 02:32:51;;;;;;;;;3.00;2.00;;;;;7.83;68.48;99048.53;5097882;27;45272;-66
2022/11/22 02:35:19;;;;;;;;;1.00;1.00;;;;;7.66;69.13;99031.03;5098184;27;45216;-69
2022/11/22 02:37:47;;;;;;;;;1.33;1.00;;;;;7.83;69.20;99061.78;5098358;27;45374;-67
2022/11/22 02:40:15;;;;;;;;;2.33;1.33;;;;;7.84;69.00;99066.06;5079334;27;48912;-68
2022/11/22 02:42:49;;;;;;;;;0.00;0.00;;;;;7.79;68.89;99069.19;5099480;27;45479;-66
2022/11/22 02:45:15;;;;;;;;;2.00;0.67;;;;;7.55;69.45;99025.09;5090966;27;45458;-66
2022/11/22 02:47:40;;;;;;;;;1.00;0.33;;;;;7.29;69.05;98982.16;5118985;27;45423;-67
2022/11/22 02:50:06;;;;;;;;;1.33;0.67;;;;;7.61;69.09;99044.78;5118569;27;46616;-68
2022/11/22 02:52:31;;;;;;;;;1.00;1.00;;;;;7.36;69.56;99006.91;5115715;27;45583;-68
2022/11/22 02:54:57;;;;;;;;;1.00;1.00;;;;;7.62;69.45;99020.78;5079721;27;45488;-68
2022/11/22 02:57:23;;;;;;;;;1.00;1.00;;;;;7.69;69.15;99017.47;5097932;27;45219;-68
2022/11/22 02:59:48;;;;;;;;;3.00;1.00;;;;;7.72;69.51;99030.34;5097596;27;47130;-68
2022/11/22 03:02:13;;;;;;;;;2.00;1.00;;;;;7.70;69.08;99012.00;5096963;27;45450;-68
2022/11/22 03:04:38;;;;;;;;;1.00;1.00;;;;;7.55;69.06;98984.59;5094596;27;46714;-68
2022/11/22 03:07:04;;;;;;;;;1.33;1.00;;;;;7.88;69.42;99043.56;5097508;27;46631;-68
2022/11/22 03:09:30;;;;;;;;;0.67;0.00;;;;;7.76;69.79;99026.38;5097909;27;46411;-69
2022/11/22 03:11:56;;;;;;;;;1.00;1.00;;;;;7.69;69.42;99001.59;5095463;27;45612;-67
2022/11/22 03:14:22;;;;;;;;;2.00;1.00;;;;;7.94;69.82;99034.94;5097062;27;45374;-67
2022/11/22 03:16:48;;;;;;;;;0.00;0.00;;;;;7.50;69.54;98948.09;5097868;27;45415;-67
2022/11/22 03:19:14;;;;;;;;;1.00;1.00;;;;;7.91;69.53;99037.94;5097569;27;45393;-67
2022/11/22 03:21:41;;;;;;;;;4.00;1.00;;;;;7.44;69.66;98940.81;5097504;27;45344;-68
2022/11/22 03:24:07;;;;;;;;;1.00;1.00;;;;;7.92;69.86;99011.31;5107317;27;45619;-69
2022/11/22 03:26:34;;;;;;;;;0.00;0.00;;;;;7.88;70.23;99022.41;5104637;27;45500;-68
2022/11/22 03:28:59;;;;;;;;;1.00;1.00;;;;;5.62;70.04;98661.34;5118155;27;45755;-67
2022/11/22 03:31:25;;;;;;;;;5.00;0.67;;;;;7.93;69.88;99033.28;5114948;27;45519;-68
2022/11/22 03:33:50;;;;;;;;;0.00;0.00;;;;;7.95;69.93;99026.00;5097275;27;45449;-69
2022/11/22 03:36:16;;;;;;;;;1.00;1.00;;;;;7.97;69.63;99029.31;5079542;27;45601;-69
2022/11/22 03:38:41;;;;;;;;;1.00;1.00;;;;;7.94;70.11;99029.66;5097451;27;46009;-68
2022/11/22 03:41:07;;;;;;;;;2.00;2.00;;;;;7.81;69.98;99009.03;5107300;27;45520;-67
2022/11/22 03:43:32;;;;;;;;;2.00;0.67;;;;;7.94;70.01;99025.19;5117929;27;45363;-67
2022/11/22 03:45:57;;;;;;;;;2.00;2.00;;;;;8.03;70.45;99033.94;5118250;27;45498;-67
2022/11/22 03:48:23;;;;;;;;;1.67;0.33;;;;;7.78;70.00;98992.66;5117692;27;46927;-68
2022/11/22 03:50:48;;;;;;;;;2.33;2.33;;;;;7.86;70.14;98992.66;5099108;27;45256;-68
2022/11/22 03:53:14;;;;;;;;;0.00;0.00;;;;;8.02;70.22;99027.00;5117896;27;45353;-67
2022/11/22 03:55:39;;;;;;;;;0.67;0.33;;;;;8.16;70.00;99028.94;5087924;27;45457;-67
2022/11/22 03:58:05;;;;;;;;;0.67;0.67;;;;;7.72;69.92;98953.66;5098248;27;45694;-68
2022/11/22 04:00:32;;;;;;;;;3.67;1.00;;;;;8.23;70.12;99039.69;5081853;27;45602;-67
2022/11/22 04:02:57;;;;;;;;;0.00;0.00;;;;;8.16;69.95;99013.03;5117719;27;45238;-68
2022/11/22 04:05:22;;;;;;;;;0.33;0.33;;;;;7.52;69.95;98893.19;5117816;27;45219;-67
2022/11/22 04:07:48;;;;;;;;;3.00;1.00;;;;;7.54;69.93;98896.50;5114581;27;46363;-68
2022/11/22 04:10:13;;;;;;;;;1.33;1.00;;;;;8.30;69.93;99021.28;5097370;27;45457;-66
2022/11/22 04:12:38;;;;;;;;;1.33;1.00;;;;;8.22;69.95;99001.78;5078243;27;45458;-68
2022/11/22 04:15:10;;;;;;;;;1.00;1.00;;;;;7.81;69.68;98931.50;5097517;27;45482;-68
2022/11/22 04:17:42;;;;;;;;;1.00;1.00;;;;;8.01;70.20;98964.50;5096878;27;45483;-67
2022/11/22 04:23:22;;;;;;;;;1.00;1.00;;;;;8.26;69.58;99007.56;5100547;27;45407;-66
2022/11/22 04:25:53;;;;;;;;;1.67;1.67;;;;;7.35;70.03;98848.47;5100463;27;45456;-68
2022/11/22 04:28:21;;;;;;;;;0.00;0.00;;;;;8.36;70.18;99017.97;5100083;27;45432;-68
2022/11/22 04:33:30;;;;;;;;;1.00;1.00;;;;;7.78;69.97;98886.84;5099270;27;45531;-68
2022/11/22 04:35:56;;;;;;;;;2.33;1.00;;;;;7.42;70.01;98837.06;5101492;27;45484;-67
2022/11/22 04:38:21;;;;;;;;;0.33;0.33;;;;;8.42;70.29;98981.06;5100333;27;46390;-67
2022/11/22 04:40:47;;;;;;;;;1.00;1.00;;;;;8.37;70.09;98967.47;5100075;27;45397;-67
2022/11/22 04:46:23;;;;;;;;;0.67;0.67;;;;;8.44;70.35;98971.09;5100356;27;45280;-68
2022/11/22 04:48:48;;;;;;;;;3.00;1.00;;;;;8.48;70.67;98990.13;5099788;27;45389;-67
2022/11/22 04:53:58;;;;;;;;;1.00;1.00;;;;;8.34;70.04;98969.66;5100470;27;45268;-69
2022/11/22 04:56:23;;;;;;;;;1.00;1.00;;;;;8.49;70.39;98981.16;5081522;27;45538;-68
2022/11/22 04:58:50;;;;;;;;;0.67;0.67;;;;;8.51;70.21;98997.72;5099573;27;46348;-68
2022/11/22 05:01:15;;;;;;;;;1.00;1.00;;;;;8.39;70.01;98965.47;5098334;27;45513;-68
2022/11/22 05:03:41;;;;;;;;;1.00;1.00;;;;;8.03;70.10;98901.63;5099522;27;45423;-68
2022/11/22 05:06:06;;;;;;;;;1.67;0.67;;;;;8.53;70.02;98985.13;5098916;27;45287;-68
2022/11/22 05:08:32;;;;;;;;;2.67;1.00;;;;;8.16;70.17;98931.00;5099715;27;45573;-69
2022/11/22 05:10:58;;;;;;;;;1.67;1.00;;;;;6.75;70.09;98693.91;5099435;27;45422;-68
2022/11/22 05:13:30;;;;;;;;;2.00;1.00;;;;;8.03;70.04;98909.56;5099234;27;45314;-68
2022/11/22 05:15:56;;;;;;;;;2.33;2.33;;;;;8.50;69.94;98982.81;5081525;27;45481;-68
2022/11/22 05:18:22;;;;;;;;;2.00;1.00;;;;;7.76;69.51;98857.91;5099514;27;46486;-67
2022/11/22 05:20:48;;;;;;;;;0.33;0.33;;;;;8.62;69.69;98986.75;5099227;27;45438;-68
2022/11/22 05:25:58;;;;;;;;;3.00;2.00;;;;;8.66;69.96;98977.44;5100780;27;45544;-68
2022/11/22 05:28:28;;;;;;;;;1.33;0.00;;;;;7.69;69.78;98819.94;5099404;27;45931;-68
2022/11/22 05:30:54;;;;;;;;;2.00;0.33;;;;;8.61;69.90;98966.56;5105544;27;46480;-68
2022/11/22 05:33:19;;;;;;;;;0.00;0.00;;;;;8.69;70.13;98977.09;5080731;27;45572;-69
2022/11/22 05:35:45;;;;;;;;;0.00;0.00;;;;;8.77;70.92;99003.50;5099253;27;45322;-67
2022/11/22 05:38:10;;;;;;;;;1.00;1.00;;;;;7.96;70.67;98865.41;5099094;27;45898;-69
2022/11/22 05:40:35;;;;;;;;;3.00;2.00;;;;;8.57;70.97;98959.94;5099006;27;45315;-68
2022/11/22 05:43:01;;;;;;;;;1.00;1.00;;;;;8.82;71.40;98987.13;5099192;27;45244;-67
2022/11/22 05:45:26;;;;;;;;;1.00;1.00;;;;;8.65;71.74;98965.19;5080812;27;45329;-68
2022/11/22 05:47:51;;;;;;;;;0.00;0.00;;;;;8.61;71.41;98955.09;5098755;27;46456;-68
2022/11/22 05:50:17;;;;;;;;;0.00;0.00;;;;;8.74;71.50;98977.38;5098976;27;45466;-68
2022/11/22 05:52:42;;;;;;;;;1.00;0.00;;;;;8.84;71.88;99007.13;5100427;27;45532;-68
2022/11/22 05:55:07;;;;;;;;;0.00;0.00;;;;;8.71;71.81;98985.69;5099309;27;45412;-67
2022/11/22 05:57:33;;;;;;;;;1.00;1.00;;;;;8.85;71.86;99010.63;5091899;27;47121;-67
2022/11/22 05:59:58;;;;;;;;;0.00;0.00;;;;;8.88;71.68;99012.09;5087926;27;45486;-67
2022/11/22 06:02:24;;;;;;;;;0.00;0.00;;;;;8.82;71.96;99003.00;5099163;27;45310;-68
2022/11/22 06:04:50;;;;;;;;;0.00;0.00;;;;;8.90;72.19;99026.81;5083865;27;45339;-68
2022/11/22 06:07:15;;;;;;;;;1.00;1.00;;;;;8.55;71.67;98948.69;5098305;27;45786;-67
2022/11/22 06:09:40;;;;;;;;;1.00;1.00;;;;;8.74;72.05;98985.31;5098313;27;45308;-69
2022/11/22 06:12:06;;;;;;;;;1.00;0.00;;;;;8.90;71.65;99016.19;5097870;27;45541;-68
2022/11/22 06:14:31;;;;;;;;;0.00;0.00;;;;;8.18;72.17;98881.34;5100372;27;45692;-67
2022/11/22 06:16:57;;;;;;;;;2.33;1.33;;;;;8.92;72.08;98992.16;5118934;27;46343;-69
2022/11/22 06:19:22;;;;;;;;;3.00;0.00;;;;;8.39;72.05;98917.00;5093997;27;45384;-67
2022/11/22 06:21:47;;;;;;;;;0.00;0.00;;;;;8.91;72.08;98993.19;5098327;27;45256;-70
2022/11/22 06:24:13;;;;;;;;;1.00;0.00;;;;;8.89;71.85;98976.63;5097616;27;49533;-67
2022/11/22 06:26:38;;;;;;;;;0.00;0.00;;;;;8.69;72.13;98960.38;5097846;27;45542;-70
2022/11/22 06:29:03;;;;;;;;;1.00;1.00;;;;;8.38;72.49;98931.25;5098182;27;45284;-69
2022/11/22 06:31:29;;;;;;;;;1.00;1.00;;;;;8.86;72.58;99003.47;5102551;27;45590;-67
2022/11/22 06:33:58;;;;;;;;;2.00;1.00;;;;;8.81;72.41;98994.25;5113919;27;45481;-69
2022/11/22 06:36:32;;;;;;;;;1.00;1.00;;;;;8.78;72.49;99001.69;5100530;27;48628;-70
2022/11/22 06:38:58;;;;;;;;;3.33;0.33;;;;;8.83;72.79;99005.50;5106109;27;45418;-69
2022/11/22 06:41:26;;;;;;;;;0.33;0.33;;;;;8.79;72.61;98992.75;5105383;27;45374;-69
2022/11/22 06:43:55;;;;;;;;;3.00;1.00;;;;;8.67;72.23;98960.53;5111189;27;45333;-69
2022/11/22 06:46:21;;;;;;;;;2.00;1.00;;;;;8.49;72.33;98936.97;5118755;27;45785;-69
2022/11/22 06:48:47;;;;;;;;;2.00;0.00;;;;;8.91;72.55;99007.25;5100107;27;45576;-72
2022/11/22 06:51:18;;;;;;;;;1.67;1.67;;;;;8.93;72.71;99005.25;5118807;27;45328;-68
2022/11/22 06:53:44;;;;;;;;;1.00;0.33;;;;;8.93;72.36;98999.13;5118204;27;45243;-69
2022/11/22 06:56:19;;;;;;;;;2.33;1.00;;;;;8.69;71.86;98958.53;5108530;27;46633;-68
2022/11/22 06:58:46;;;;;;;;;0.33;0.33;;;;;8.79;72.30;98990.91;5101196;27;45572;-70
2022/11/22 07:01:20;;;;;;;;;2.33;0.67;;;;;8.70;72.01;98981.38;5106828;27;45655;-70
2022/11/22 07:03:47;;;;;;;;;2.00;1.00;;;;;8.97;72.04;99045.47;5096176;27;45634;-69
2022/11/22 07:06:14;;;;;;;;;1.67;1.00;;;;;8.97;71.98;99003.06;5115480;27;45788;-69
2022/11/22 07:08:40;;;;;;;;;1.33;1.00;;;;;9.05;71.79;99014.44;5098862;27;46226;-69
2022/11/22 07:11:09;;;;;;;;;0.33;0.33;;;;;8.61;71.59;98958.59;5118337;27;45448;-68
2022/11/22 07:13:35;;;;;;;;;5.00;0.67;;;;;7.39;71.08;98744.03;5118388;27;45410;-68
2022/11/22 07:16:02;;;;;;;;;2.00;1.00;;;;;8.77;71.31;98974.38;5112989;27;45401;-69
2022/11/22 07:18:28;;;;;;;;;2.33;0.33;;;;;8.74;71.57;98966.78;5079224;27;45811;-74
2022/11/22 07:21:08;;;;;;;;;1.33;0.00;;;;;9.15;71.35;99032.75;5096637;27;45715;-72
2022/11/22 07:23:37;;;;;;;;;1.00;1.00;;;;;8.77;71.26;98958.47;5079297;27;45576;-69
2022/11/22 07:26:03;;;;;;;;;1.33;1.33;;;;;8.77;71.19;98953.19;5078337;27;48240;-69
2022/11/22 07:28:28;;;;;;;;;1.33;1.33;;;;;9.23;71.14;99027.41;5108908;27;45784;-70
2022/11/22 07:30:59;;;;;;;;;3.00;2.00;;;;;8.21;71.19;98878.38;5117032;27;45995;-72
2022/11/22 07:33:24;;;;;;;;;1.67;1.00;;;;;9.13;71.10;99037.41;5115390;27;45557;-70
2022/11/22 07:35:50;;;;;;;;;1.00;0.00;;;;;8.88;71.04;98996.19;5097337;27;45389;-68
2022/11/22 07:38:15;;;;;;;;;0.00;0.00;;;;;9.19;70.86;99060.56;5079990;27;46629;-69
2022/11/22 07:40:41;;;;;;;;;0.33;0.33;;;;;9.26;70.73;99061.53;5099131;27;45478;-72
2022/11/22 07:43:07;;;;;;;;;2.00;1.00;;;;;8.38;70.33;98931.25;5105610;27;45492;-70
2022/11/22 07:45:32;;;;;;;;;0.33;0.33;;;;;9.13;70.91;99034.75;5102786;27;45989;-69
2022/11/22 07:47:59;;;;;;;;;3.00;2.00;;;;;9.28;70.97;99067.47;5118093;27;45462;-68
2022/11/22 07:50:24;;;;;;;;;3.00;1.67;;;;;9.29;70.89;99068.31;5077215;27;46256;-77
2022/11/22 07:52:54;;;;;;;;;0.00;0.00;;;;;9.29;70.13;99063.00;5117920;27;45302;-70
2022/11/22 07:55:20;;;;;;;;;2.00;1.00;;;;;9.15;69.84;99038.06;5120617;27;46226;-70
2022/11/22 07:57:45;;;;;;;;;2.00;0.00;;;;;9.26;70.00;99068.66;5111548;27;45504;-71
2022/11/22 08:00:12;;;;;;;;;1.00;0.00;;;;;8.98;70.56;99008.19;5102988;27;45575;-69
2022/11/22 08:02:38;;;;;;;;;3.00;0.67;;;;;9.16;70.78;99031.75;5092890;27;45644;-69
2022/11/22 08:05:03;;;;;;;;;0.00;0.00;;;;;9.41;70.68;99062.41;5121209;27;45719;-70
2022/11/22 08:07:29;;;;;;;;;2.00;1.00;;;;;9.28;70.72;99035.66;5107140;27;45448;-69
2022/11/22 08:09:54;;;;;;;;;1.00;0.00;;;;;9.04;71.00;99006.69;5100358;27;45513;-70
2022/11/22 08:12:19;;;;;;;;;3.67;1.33;;;;;9.00;71.09;99003.53;5100415;27;45451;-70
2022/11/22 08:14:45;;;;;;;;;0.00;0.00;;;;;9.07;71.23;99011.63;5101107;27;46494;-70
2022/11/22 08:17:10;;;;;;;;;0.00;0.00;;;;;9.45;71.11;99073.50;5086746;27;45675;-70
2022/11/22 08:19:36;;;;;;;;;0.00;0.00;;;;;8.71;71.21;98953.88;5117523;27;45524;-71
2022/11/22 08:22:01;;;;;;;;;1.00;0.00;;;;;9.42;71.58;99066.72;5097425;27;45509;-70
2022/11/22 08:24:27;;;;;;;;;0.67;0.67;;;;;9.45;71.27;99073.50;5102647;27;47379;-73
2022/11/22 08:26:52;;;;;;;;;11.00;9.67;;;;;8.74;71.76;98958.00;5120874;27;45400;-72
2022/11/22 08:29:18;;;;;;;;;1.00;1.00;;;;;9.54;71.63;99082.19;5102255;27;45220;-70
2022/11/22 08:31:43;;;;;;;;;1.33;1.33;;;;;9.33;71.45;99043.06;5105521;27;45634;-74
2022/11/22 08:34:08;;;;;;;;;2.00;2.00;;;;;9.44;71.32;99072.66;5090380;27;48711;-70
2022/11/22 08:36:34;;;;;;;;;2.67;1.67;;;;;9.50;71.16;99075.59;5120659;27;45239;-72
2022/11/22 08:38:59;;;;;;;;;2.33;1.00;;;;;9.62;71.03;99090.13;5120819;27;45297;-70
2022/11/22 08:41:25;;;;;;;;;1.00;1.00;;;;;9.26;71.52;99031.53;5118740;27;46579;-71
2022/11/22 08:43:52;;;;;;;;;4.00;2.00;;;;;8.61;71.50;98937.41;5101084;27;46057;-71
2022/11/22 08:46:18;;;;;;;;;1.67;1.00;;;;;9.57;71.28;99079.19;5099861;27;45403;-70
2022/11/22 08:48:45;;;;;;;;;0.33;0.33;;;;;9.36;71.50;99066.59;5081164;27;45406;-73
2022/11/22 08:51:12;;;;;;;;;5.00;3.67;;;;;9.51;71.59;99087.88;5085870;27;45550;-71
2022/11/22 08:53:40;;;;;;;;;2.33;2.33;;;;;8.85;71.92;98960.25;5120047;27;45512;-75
2022/11/22 08:56:08;;;;;;;;;4.33;1.67;;;;;9.43;71.07;99043.69;5101800;27;45301;-72
2022/11/22 08:58:34;;;;;;;;;1.00;0.00;;;;;8.60;70.64;98898.66;5103041;27;45494;-71
2022/11/22 09:01:04;;;;;;;;;2.33;2.33;;;;;9.37;71.01;99029.28;5101926;27;45455;-71
2022/11/22 09:03:30;;;;;;;;;2.00;2.00;;;;;9.90;70.83;99108.94;5115396;27;45729;-70
2022/11/22 09:06:03;;;;;;;;;1.67;1.00;;;;;9.07;70.90;98963.91;5080680;27;45482;-70
2022/11/22 09:08:29;;;;;;;;;3.00;1.00;;;;;10.06;70.51;99106.97;5118718;27;45539;-72
2022/11/22 09:10:54;;;;;;;;;3.67;2.67;;;;;8.81;70.55;98890.06;5120752;27;45579;-72
2022/11/22 09:13:19;;;;;;;;;1.67;1.67;;;;;9.92;69.91;99049.34;5101713;27;46364;-71
2022/11/22 09:15:45;;;;;;;;;1.00;1.00;;;;;9.86;69.82;99071.31;5102065;27;45398;-72
2022/11/22 09:18:10;;;;;;;;;3.67;2.00;;;;;10.24;69.67;99088.06;5121230;27;45472;-71
2022/11/22 09:20:36;;;;;;;;;4.00;2.00;;;;;10.01;70.03;99064.22;5092576;27;45453;-71
2022/11/22 09:23:02;;;;;;;;;4.33;2.33;;;;;9.90;69.40;99022.16;5078169;27;48431;-78
2022/11/22 09:25:28;;;;;;;;;1.00;1.00;;;;;10.48;68.87;99118.84;5089705;27;46250;-71
2022/11/22 09:27:53;;;;;;;;;3.00;3.00;;;;;10.56;68.73;99116.09;5092229;27;45574;-77
2022/11/22 09:30:20;;;;;;;;;7.00;1.67;;;;;10.62;68.09;99107.41;5120431;27;45312;-73
2022/11/22 09:32:46;;;;;;;;;4.00;2.33;;;;;10.62;68.28;99104.75;5120445;27;45612;-70
2022/11/22 09:35:11;;;;;;;;;2.33;2.33;;;;;10.56;68.21;99073.56;5122396;27;45519;-72
2022/11/22 09:37:36;;;;;;;;;3.00;1.00;;;;;10.79;67.31;99072.63;5120340;27;45802;-72
2022/11/22 09:40:02;;;;;;;;;3.00;2.00;;;;;10.43;66.99;99020.28;5101375;27;45603;-70
2022/11/22 09:42:56;;;;;;;;;2.00;1.00;;;;;11.04;66.32;99129.81;5111806;27;47479;-72
2022/11/22 09:45:38;;;;;;;;;2.00;1.00;;;;;11.12;65.88;99120.88;5117968;27;45556;-70
2022/11/22 09:48:11;;;;;;;;;2.33;0.67;;;;;11.08;66.23;99108.97;5120099;27;45382;-74
2022/11/22 09:51:09;;;;;;;;;1.00;1.00;;;;;11.30;65.17;99117.81;5092909;27;45641;-70
2022/11/22 09:53:38;;;;;;;;;4.33;1.67;;;;;11.34;64.83;99117.25;5096915;27;46591;-71
2022/11/22 09:56:09;;;;;;;;;3.00;1.67;;;;;11.08;65.46;99069.91;5099635;27;45281;-70
2022/11/22 09:58:46;;;;;;;;;4.00;1.67;;;;;11.36;64.58;99119.72;5099041;27;45542;-73
2022/11/22 10:01:32;;;;;;;;;3.00;2.00;;;;;11.38;64.93;99112.38;5091014;27;45360;-73
2022/11/22 10:04:07;;;;;;;;;2.00;2.00;;;;;11.38;64.79;99115.03;5084415;27;48240;-72
2022/11/22 10:06:42;;;;;;;;;2.00;2.00;;;;;11.40;65.33;99115.66;5087515;27;45605;-72
2022/11/22 10:09:19;;;;;;;;;2.33;1.00;;;;;10.95;64.53;99057.28;5091610;27;45742;-70
2022/11/22 10:11:50;;;;;;;;;1.00;1.00;;;;;11.10;64.63;99096.31;5117547;27;45423;-70
2022/11/22 10:14:24;;;;;;;;;5.67;3.67;;;;;11.40;64.82;99136.94;5107031;27;45961;-71
2022/11/22 10:17:00;;;;;;;;;4.67;3.00;;;;;11.42;65.04;99127.78;5091066;27;45456;-71
2022/11/22 10:19:36;;;;;;;;;3.00;1.00;;;;;11.22;64.81;99095.66;5082931;27;45466;-72
2022/11/22 10:22:12;;;;;;;;;5.00;4.00;;;;;10.74;64.17;99029.84;5098919;27;45318;-72
2022/11/22 10:24:37;;;;;;;;;2.33;2.00;;;;;10.87;64.51;99056.59;5080022;27;46494;-72
2022/11/22 10:27:08;;;;;;;;;2.33;2.33;;;;;11.41;64.50;99141.25;5088284;27;45346;-71
2022/11/22 10:29:44;;;;;;;;;2.67;1.33;;;;;10.85;64.39;99030.19;5110812;27;45436;-72
2022/11/22 10:32:20;;;;;;;;;5.00;3.33;;;;;11.45;64.31;99134.56;5099417;27;45417;-70
2022/11/22 10:34:57;;;;;;;;;3.67;2.00;;;;;11.47;64.30;99135.19;5111501;27;45734;-69
2022/11/22 10:37:37;;;;;;;;;4.33;2.00;;;;;11.61;63.97;99147.59;5100379;27;45545;-69
2022/11/22 10:40:22;;;;;;;;;4.00;2.67;;;;;11.55;63.87;99140.38;5100060;27;45428;-70
2022/11/22 10:43:03;;;;;;;;;4.33;2.00;;;;;11.53;62.75;99137.09;5089160;27;45591;-69
2022/11/22 10:45:35;;;;;;;;;2.00;2.00;;;;;11.36;63.06;99106.41;5118288;27;46635;-70
2022/11/22 10:48:06;;;;;;;;;2.67;1.67;;;;;10.87;62.95;99080.50;5107401;27;45473;-70
2022/11/22 10:50:46;;;;;;;;;3.00;2.00;;;;;10.65;62.38;98992.75;5098490;27;45525;-71
2022/11/22 10:53:35;;;;;;;;;5.00;3.33;;;;;10.58;62.48;98954.63;5080576;27;45577;-71
2022/11/22 10:56:12;;;;;;;;;3.00;3.00;;;;;11.85;62.49;99154.44;5102397;27;45758;-70
2022/11/22 10:59:22;;;;;;;;;3.67;1.33;;;;;11.83;61.11;99157.31;5099279;27;45531;-69
2022/11/22 11:02:32;;;;;;;;;2.33;2.33;;;;;11.78;61.02;99145.53;5076507;28;45360;-70
2022/11/22 11:05:01;;;;;;;;;8.00;2.00;;;;;11.78;61.11;99141.06;5039382;28;45631;-70
2022/11/22 11:07:27;;;;;;;;;3.67;2.00;;;;;10.65;60.77;98966.19;5076605;27;47157;-71
2022/11/22 11:09:56;;;;;;;;;2.00;1.00;;;;;11.74;60.65;99161.06;5079216;27;45557;-70
2022/11/22 11:12:41;;;;;;;;;4.00;2.00;;;;;11.70;60.60;99159.78;5101167;27;45299;-69
2022/11/22 11:15:37;;;;;;;;;5.67;2.00;;;;;11.68;60.83;99153.84;5113348;27;45519;-72
2022/11/22 11:18:10;;;;;;;;;4.00;3.00;;;;;10.59;60.68;98976.72;5105691;27;45731;-70
2022/11/22 11:20:40;;;;;;;;;4.00;3.00;;;;;11.31;60.93;99092.84;5097902;27;45524;-70
2022/11/22 11:23:08;;;;;;;;;4.67;1.00;;;;;11.06;60.75;99071.94;5084417;27;45357;-71
2022/11/22 11:25:42;;;;;;;;;5.67;2.33;;;;;10.66;61.13;98983.78;5105125;27;45386;-69
2022/11/22 11:28:19;;;;;;;;;5.33;3.00;;;;;11.71;61.53;99158.78;5091751;27;47890;-71
2022/11/22 11:31:00;;;;;;;;;0.00;0.00;;;;;10.59;60.85;98995.31;5104445;27;45383;-70
2022/11/22 11:33:27;;;;;;;;;1.00;1.00;;;;;11.74;60.86;99162.91;5123090;27;45331;-70
2022/11/22 11:36:10;;;;;;;;;2.00;1.33;;;;;11.72;60.78;99167.59;5115082;27;45434;-72
2022/11/22 11:38:53;;;;;;;;;3.00;3.00;;;;;11.72;60.90;99155.09;5099494;27;45909;-71
2022/11/22 11:41:32;;;;;;;;;5.00;3.00;;;;;10.74;61.24;99000.59;5096857;27;45510;-71
2022/11/22 11:44:00;;;;;;;;;3.67;3.67;;;;;11.75;60.87;99170.69;5093602;27;45410;-75
2022/11/22 11:46:28;;;;;;;;;1.33;1.33;;;;;11.71;60.98;99163.28;5104421;27;45479;-71
2022/11/22 11:49:09;;;;;;;;;2.67;2.00;;;;;10.93;60.85;99026.59;5101192;27;45589;-72
2022/11/22 11:51:37;;;;;;;;;2.00;2.00;;;;;11.12;60.52;99065.84;5086368;27;45976;-71
2022/11/22 11:54:27;;;;;;;;;3.00;2.67;;;;;11.69;60.24;99152.00;5105104;27;45505;-70
2022/11/22 11:56:58;;;;;;;;;2.67;2.00;;;;;10.93;60.75;99054.00;5101285;27;45259;-71
2022/11/22 11:59:36;;;;;;;;;3.33;2.00;;;;;11.65;60.76;99180.84;5086839;27;45514;-70